Kvitbjoern — LM9158 — position and weather

sailwx.info

Track history (hours):
 
Tides and Currents Weather Stations Pressure Air Temp Water Temp Dewpoint Dewpoint Depression Visibility Wind Speed Wind Dir Waves Ship Positions

Kvitbjoern

Last reported at 2016-Dec-03 15:25 UTC. Time now 2016-Dec-03 23:56 UTC.
Position N 66°22' E 012°21'.

Length 10 m.

Type: Fishing. MMSI: 257454420.

Date/timePositionNaut miles runAvg speedWind from/ knotsBaromVisibWave heightAir tempDewpointWater temp
2016-Dec-03 15:25N 66°22' E 012°21'0 0.0
2016-Dec-03 14:31N 66°22' E 012°21'0 0.0
2016-Dec-03 13:31N 66°22' E 012°21'2 2.4
2016-Dec-03 12:30N 66°23' E 012°27'0 0.3
2016-Dec-03 11:18N 66°23' E 012°27'0 0.4
2016-Dec-03 10:24N 66°24' E 012°28'2 1.9
2016-Dec-03 09:33N 66°22' E 012°27'1 0.9
2016-Dec-03 08:33N 66°22' E 012°25'1 1.1
2016-Dec-03 07:33N 66°22' E 012°22'0 0.0
2016-Dec-02 17:31N 66°22' E 012°21'0 0.0
2016-Dec-02 15:21N 66°22' E 012°21'  
2016-Nov-24 14:33N 66°22' E 012°21'1 0.9
2016-Nov-24 13:33N 66°23' E 012°23'2 0.8
2016-Nov-24 10:32N 66°24' E 012°28'1 0.6
2016-Nov-24 09:28N 66°24' E 012°27'0 0.4
2016-Nov-24 08:28N 66°24' E 012°26'0 0.5
2016-Nov-24 07:33N 66°24' E 012°27'3 0.2
2016-Nov-23 16:23N 66°22' E 012°21'0 0.0
2016-Nov-23 15:32N 66°22' E 012°21'  
Track history (hours):
 
Tides and Currents Weather Stations Pressure Air Temp Water Temp Dewpoint Dewpoint Depression Visibility Wind Speed Wind Dir Waves Ship Positions

Kvitbjoern

Last reported at 2016-Dec-03 15:25 UTC. Time now 2016-Dec-03 23:56 UTC.
Position N 66°22' E 012°21'.

Length 10 m.

Type: Fishing. MMSI: 257454420.

Date/timePositionNaut miles runAvg speedWind from/ knotsBaromVisibWave heightAir tempDewpointWater temp
2016-Dec-03 15:25N 66°22' E 012°21'0 0.0
2016-Dec-03 14:31N 66°22' E 012°21'0 0.0
2016-Dec-03 13:31N 66°22' E 012°21'2 2.4
2016-Dec-03 12:30N 66°23' E 012°27'0 0.3
2016-Dec-03 11:18N 66°23' E 012°27'0 0.4
2016-Dec-03 10:24N 66°24' E 012°28'2 1.9
2016-Dec-03 09:33N 66°22' E 012°27'1 0.9
2016-Dec-03 08:33N 66°22' E 012°25'1 1.1
2016-Dec-03 07:33N 66°22' E 012°22'0 0.0
2016-Dec-02 17:31N 66°22' E 012°21'0 0.0
2016-Dec-02 15:21N 66°22' E 012°21'  
2016-Nov-24 14:33N 66°22' E 012°21'1 0.9
2016-Nov-24 13:33N 66°23' E 012°23'2 0.8
2016-Nov-24 10:32N 66°24' E 012°28'1 0.6
2016-Nov-24 09:28N 66°24' E 012°27'0 0.4
2016-Nov-24 08:28N 66°24' E 012°26'0 0.5
2016-Nov-24 07:33N 66°24' E 012°27'3 0.2
2016-Nov-23 16:23N 66°22' E 012°21'0 0.0
2016-Nov-23 15:32N 66°22' E 012°21'  

Dump ship's entire track history